sensor_id;sensor_type;location;lat;lon;timestamp;P1;durP1;ratioP1;P2;durP2;ratioP2
67941;SDS011;54731;42.600;23.476;2024-03-02T00:00:41;34.05;;;16.15;;
67941;SDS011;54731;42.600;23.476;2024-03-02T00:03:06;33.40;;;17.07;;
67941;SDS011;54731;42.600;23.476;2024-03-02T00:05:32;29.47;;;13.80;;
67941;SDS011;54731;42.600;23.476;2024-03-02T00:07:57;29.83;;;15.57;;
67941;SDS011;54731;42.600;23.476;2024-03-02T00:10:27;28.02;;;15.02;;
67941;SDS011;54731;42.600;23.476;2024-03-02T00:13:00;31.92;;;14.02;;
67941;SDS011;54731;42.600;23.476;2024-03-02T00:18:14;32.17;;;15.57;;
67941;SDS011;54731;42.600;23.476;2024-03-02T00:20:43;28.30;;;13.77;;
67941;SDS011;54731;42.600;23.476;2024-03-02T00:23:09;29.25;;;14.60;;
67941;SDS011;54731;42.600;23.476;2024-03-02T00:25:38;32.70;;;14.70;;
67941;SDS011;54731;42.600;23.476;2024-03-02T00:28:04;29.83;;;14.55;;
67941;SDS011;54731;42.600;23.476;2024-03-02T00:33:14;25.95;;;11.90;;
67941;SDS011;54731;42.600;23.476;2024-03-02T00:35:39;26.50;;;13.07;;
67941;SDS011;54731;42.600;23.476;2024-03-02T00:38:05;29.97;;;14.63;;
67941;SDS011;54731;42.600;23.476;2024-03-02T00:40:31;24.33;;;12.32;;
67941;SDS011;54731;42.600;23.476;2024-03-02T00:42:56;33.67;;;16.17;;
67941;SDS011;54731;42.600;23.476;2024-03-02T00:45:21;31.40;;;15.00;;
67941;SDS011;54731;42.600;23.476;2024-03-02T00:47:47;28.60;;;14.75;;
67941;SDS011;54731;42.600;23.476;2024-03-02T00:50:12;30.70;;;14.50;;
67941;SDS011;54731;42.600;23.476;2024-03-02T00:52:38;28.30;;;14.20;;
67941;SDS011;54731;42.600;23.476;2024-03-02T00:55:04;30.50;;;14.20;;
67941;SDS011;54731;42.600;23.476;2024-03-02T00:57:29;28.65;;;13.18;;
67941;SDS011;54731;42.600;23.476;2024-03-02T00:59:58;29.35;;;12.68;;
67941;SDS011;54731;42.600;23.476;2024-03-02T01:02:23;30.73;;;14.17;;
67941;SDS011;54731;42.600;23.476;2024-03-02T01:04:48;26.83;;;14.50;;
67941;SDS011;54731;42.600;23.476;2024-03-02T01:07:13;26.70;;;14.18;;
67941;SDS011;54731;42.600;23.476;2024-03-02T01:09:39;26.53;;;13.37;;
67941;SDS011;54731;42.600;23.476;2024-03-02T01:12:04;22.50;;;11.93;;
67941;SDS011;54731;42.600;23.476;2024-03-02T01:14:30;30.20;;;15.77;;
67941;SDS011;54731;42.600;23.476;2024-03-02T01:16:55;36.20;;;17.80;;
67941;SDS011;54731;42.600;23.476;2024-03-02T01:19:20;34.73;;;16.57;;
67941;SDS011;54731;42.600;23.476;2024-03-02T01:21:45;34.85;;;15.75;;
67941;SDS011;54731;42.600;23.476;2024-03-02T01:24:11;32.88;;;17.17;;
67941;SDS011;54731;42.600;23.476;2024-03-02T01:26:36;31.90;;;16.17;;
67941;SDS011;54731;42.600;23.476;2024-03-02T01:29:01;36.90;;;17.77;;
67941;SDS011;54731;42.600;23.476;2024-03-02T01:31:27;33.67;;;16.17;;
67941;SDS011;54731;42.600;23.476;2024-03-02T01:33:52;31.60;;;15.97;;
67941;SDS011;54731;42.600;23.476;2024-03-02T01:36:17;33.50;;;17.80;;
67941;SDS011;54731;42.600;23.476;2024-03-02T01:38:42;35.07;;;20.50;;
67941;SDS011;54731;42.600;23.476;2024-03-02T01:41:08;34.90;;;17.17;;
67941;SDS011;54731;42.600;23.476;2024-03-02T01:43:33;31.93;;;16.60;;
67941;SDS011;54731;42.600;23.476;2024-03-02T01:45:58;33.53;;;15.88;;
67941;SDS011;54731;42.600;23.476;2024-03-02T01:48:24;31.75;;;16.05;;
67941;SDS011;54731;42.600;23.476;2024-03-02T01:50:49;33.77;;;16.13;;
67941;SDS011;54731;42.600;23.476;2024-03-02T01:53:15;29.43;;;15.83;;
67941;SDS011;54731;42.600;23.476;2024-03-02T01:55:40;31.90;;;16.57;;
67941;SDS011;54731;42.600;23.476;2024-03-02T01:58:05;35.30;;;15.83;;
67941;SDS011;54731;42.600;23.476;2024-03-02T02:00:31;31.92;;;16.08;;
67941;SDS011;54731;42.600;23.476;2024-03-02T02:02:56;35.08;;;16.40;;
67941;SDS011;54731;42.600;23.476;2024-03-02T02:05:22;29.10;;;15.13;;
67941;SDS011;54731;42.600;23.476;2024-03-02T02:07:47;33.47;;;16.70;;
67941;SDS011;54731;42.600;23.476;2024-03-02T02:10:13;32.37;;;16.43;;
67941;SDS011;54731;42.600;23.476;2024-03-02T02:12:38;22.73;;;12.02;;
67941;SDS011;54731;42.600;23.476;2024-03-02T02:15:25;26.37;;;12.70;;
67941;SDS011;54731;42.600;23.476;2024-03-02T02:17:53;24.63;;;12.88;;
67941;SDS011;54731;42.600;23.476;2024-03-02T02:20:19;28.02;;;13.98;;
67941;SDS011;54731;42.600;23.476;2024-03-02T02:22:57;32.07;;;14.20;;
67941;SDS011;54731;42.600;23.476;2024-03-02T02:25:24;32.83;;;15.50;;
67941;SDS011;54731;42.600;23.476;2024-03-02T02:27:49;33.47;;;16.00;;
67941;SDS011;54731;42.600;23.476;2024-03-02T02:30:18;37.07;;;17.17;;
67941;SDS011;54731;42.600;23.476;2024-03-02T02:32:47;38.65;;;17.48;;
67941;SDS011;54731;42.600;23.476;2024-03-02T02:35:13;35.43;;;17.73;;
67941;SDS011;54731;42.600;23.476;2024-03-02T02:37:38;41.27;;;18.80;;
67941;SDS011;54731;42.600;23.476;2024-03-02T02:40:04;39.25;;;18.02;;
67941;SDS011;54731;42.600;23.476;2024-03-02T02:42:30;34.63;;;18.30;;
67941;SDS011;54731;42.600;23.476;2024-03-02T02:44:55;40.88;;;18.48;;
67941;SDS011;54731;42.600;23.476;2024-03-02T02:47:20;37.80;;;18.63;;
67941;SDS011;54731;42.600;23.476;2024-03-02T02:49:46;41.90;;;20.47;;
67941;SDS011;54731;42.600;23.476;2024-03-02T02:52:11;44.87;;;20.43;;
67941;SDS011;54731;42.600;23.476;2024-03-02T02:54:37;43.53;;;19.87;;
67941;SDS011;54731;42.600;23.476;2024-03-02T02:57:02;43.28;;;19.13;;
67941;SDS011;54731;42.600;23.476;2024-03-02T02:59:28;43.70;;;20.97;;
67941;SDS011;54731;42.600;23.476;2024-03-02T03:01:53;37.03;;;16.83;;
67941;SDS011;54731;42.600;23.476;2024-03-02T03:04:18;34.13;;;16.90;;
67941;SDS011;54731;42.600;23.476;2024-03-02T03:06:44;38.40;;;18.47;;
67941;SDS011;54731;42.600;23.476;2024-03-02T03:09:09;30.13;;;14.70;;
67941;SDS011;54731;42.600;23.476;2024-03-02T03:11:34;31.33;;;14.60;;
67941;SDS011;54731;42.600;23.476;2024-03-02T03:14:00;31.80;;;14.40;;
67941;SDS011;54731;42.600;23.476;2024-03-02T03:16:25;31.60;;;16.10;;
67941;SDS011;54731;42.600;23.476;2024-03-02T03:18:50;33.87;;;16.73;;
67941;SDS011;54731;42.600;23.476;2024-03-02T03:21:16;47.33;;;20.97;;
67941;SDS011;54731;42.600;23.476;2024-03-02T03:23:41;41.07;;;18.53;;
67941;SDS011;54731;42.600;23.476;2024-03-02T03:26:06;32.00;;;16.27;;
67941;SDS011;54731;42.600;23.476;2024-03-02T03:28:31;35.50;;;17.70;;
67941;SDS011;54731;42.600;23.476;2024-03-02T03:30:57;37.87;;;17.70;;
67941;SDS011;54731;42.600;23.476;2024-03-02T03:33:22;33.83;;;18.40;;
67941;SDS011;54731;42.600;23.476;2024-03-02T03:35:47;33.45;;;17.50;;
67941;SDS011;54731;42.600;23.476;2024-03-02T03:38:13;26.80;;;14.70;;
67941;SDS011;54731;42.600;23.476;2024-03-02T03:40:38;30.10;;;13.87;;
67941;SDS011;54731;42.600;23.476;2024-03-02T03:43:03;27.63;;;13.67;;
67941;SDS011;54731;42.600;23.476;2024-03-02T03:45:28;25.10;;;12.97;;
67941;SDS011;54731;42.600;23.476;2024-03-02T03:47:54;25.70;;;12.83;;
67941;SDS011;54731;42.600;23.476;2024-03-02T03:50:19;26.50;;;14.90;;
67941;SDS011;54731;42.600;23.476;2024-03-02T03:52:44;29.33;;;15.43;;
67941;SDS011;54731;42.600;23.476;2024-03-02T03:55:10;37.77;;;15.37;;
67941;SDS011;54731;42.600;23.476;2024-03-02T03:57:35;33.53;;;17.07;;
67941;SDS011;54731;42.600;23.476;2024-03-02T04:00:00;35.00;;;17.23;;
67941;SDS011;54731;42.600;23.476;2024-03-02T04:02:26;33.43;;;17.60;;
67941;SDS011;54731;42.600;23.476;2024-03-02T04:04:51;37.03;;;18.53;;
67941;SDS011;54731;42.600;23.476;2024-03-02T04:07:16;27.57;;;14.80;;
67941;SDS011;54731;42.600;23.476;2024-03-02T04:09:41;27.70;;;13.80;;
67941;SDS011;54731;42.600;23.476;2024-03-02T04:12:07;34.10;;;15.00;;
67941;SDS011;54731;42.600;23.476;2024-03-02T04:14:32;25.97;;;13.67;;
67941;SDS011;54731;42.600;23.476;2024-03-02T04:16:57;26.00;;;12.63;;
67941;SDS011;54731;42.600;23.476;2024-03-02T04:19:23;27.57;;;13.93;;
67941;SDS011;54731;42.600;23.476;2024-03-02T04:21:48;25.37;;;12.57;;
67941;SDS011;54731;42.600;23.476;2024-03-02T04:24:13;25.95;;;12.73;;
67941;SDS011;54731;42.600;23.476;2024-03-02T04:26:38;23.23;;;11.00;;
67941;SDS011;54731;42.600;23.476;2024-03-02T04:29:04;22.53;;;11.03;;
67941;SDS011;54731;42.600;23.476;2024-03-02T04:31:29;18.80;;;9.97;;
67941;SDS011;54731;42.600;23.476;2024-03-02T04:33:54;22.53;;;11.03;;
67941;SDS011;54731;42.600;23.476;2024-03-02T04:36:20;23.60;;;12.37;;
67941;SDS011;54731;42.600;23.476;2024-03-02T04:38:45;22.77;;;11.93;;
67941;SDS011;54731;42.600;23.476;2024-03-02T04:41:10;27.33;;;12.23;;
67941;SDS011;54731;42.600;23.476;2024-03-02T04:43:36;21.13;;;11.37;;
67941;SDS011;54731;42.600;23.476;2024-03-02T04:46:01;23.77;;;10.43;;
67941;SDS011;54731;42.600;23.476;2024-03-02T04:48:26;24.35;;;12.50;;
67941;SDS011;54731;42.600;23.476;2024-03-02T04:50:52;24.80;;;11.30;;
67941;SDS011;54731;42.600;23.476;2024-03-02T04:53:17;27.10;;;12.97;;
67941;SDS011;54731;42.600;23.476;2024-03-02T04:55:42;28.27;;;13.60;;
67941;SDS011;54731;42.600;23.476;2024-03-02T04:58:08;24.30;;;12.43;;
67941;SDS011;54731;42.600;23.476;2024-03-02T05:00:34;27.65;;;12.52;;
67941;SDS011;54731;42.600;23.476;2024-03-02T05:02:59;22.37;;;12.00;;
67941;SDS011;54731;42.600;23.476;2024-03-02T05:05:25;23.67;;;12.13;;
67941;SDS011;54731;42.600;23.476;2024-03-02T05:07:50;21.83;;;10.55;;
67941;SDS011;54731;42.600;23.476;2024-03-02T05:10:16;22.20;;;9.57;;
67941;SDS011;54731;42.600;23.476;2024-03-02T05:12:41;21.97;;;10.97;;
67941;SDS011;54731;42.600;23.476;2024-03-02T05:15:06;22.87;;;11.80;;
67941;SDS011;54731;42.600;23.476;2024-03-02T05:17:32;22.92;;;10.48;;
67941;SDS011;54731;42.600;23.476;2024-03-02T05:19:57;21.77;;;10.93;;
67941;SDS011;54731;42.600;23.476;2024-03-02T05:22:23;23.63;;;13.37;;
67941;SDS011;54731;42.600;23.476;2024-03-02T05:24:48;29.97;;;13.47;;
67941;SDS011;54731;42.600;23.476;2024-03-02T05:27:13;23.40;;;11.90;;
67941;SDS011;54731;42.600;23.476;2024-03-02T05:29:38;27.50;;;12.87;;
67941;SDS011;54731;42.600;23.476;2024-03-02T05:32:04;27.07;;;13.03;;
67941;SDS011;54731;42.600;23.476;2024-03-02T05:34:29;27.05;;;13.57;;
67941;SDS011;54731;42.600;23.476;2024-03-02T05:36:54;30.55;;;13.77;;
67941;SDS011;54731;42.600;23.476;2024-03-02T05:39:20;26.93;;;14.70;;
67941;SDS011;54731;42.600;23.476;2024-03-02T05:41:45;31.13;;;14.33;;
67941;SDS011;54731;42.600;23.476;2024-03-02T05:44:10;31.20;;;16.20;;
67941;SDS011;54731;42.600;23.476;2024-03-02T05:46:35;29.07;;;15.60;;
67941;SDS011;54731;42.600;23.476;2024-03-02T05:49:01;33.70;;;15.87;;
67941;SDS011;54731;42.600;23.476;2024-03-02T05:51:26;35.07;;;17.40;;
67941;SDS011;54731;42.600;23.476;2024-03-02T05:53:52;33.37;;;16.90;;
67941;SDS011;54731;42.600;23.476;2024-03-02T05:56:17;28.88;;;15.70;;
67941;SDS011;54731;42.600;23.476;2024-03-02T05:58:42;32.87;;;15.60;;
67941;SDS011;54731;42.600;23.476;2024-03-02T06:01:07;24.80;;;12.80;;
67941;SDS011;54731;42.600;23.476;2024-03-02T06:03:33;25.83;;;12.47;;
67941;SDS011;54731;42.600;23.476;2024-03-02T06:05:58;24.67;;;10.77;;
67941;SDS011;54731;42.600;23.476;2024-03-02T06:08:23;20.73;;;10.73;;
67941;SDS011;54731;42.600;23.476;2024-03-02T06:10:48;20.60;;;11.20;;
67941;SDS011;54731;42.600;23.476;2024-03-02T06:13:14;21.93;;;11.70;;
67941;SDS011;54731;42.600;23.476;2024-03-02T06:15:39;20.92;;;10.20;;
67941;SDS011;54731;42.600;23.476;2024-03-02T06:18:05;22.20;;;10.63;;
67941;SDS011;54731;42.600;23.476;2024-03-02T06:20:30;18.77;;;9.07;;
67941;SDS011;54731;42.600;23.476;2024-03-02T06:22:55;15.87;;;9.30;;
67941;SDS011;54731;42.600;23.476;2024-03-02T06:25:21;23.93;;;11.87;;
67941;SDS011;54731;42.600;23.476;2024-03-02T06:27:46;27.27;;;11.40;;
67941;SDS011;54731;42.600;23.476;2024-03-02T06:30:11;25.97;;;15.70;;
67941;SDS011;54731;42.600;23.476;2024-03-02T06:32:37;25.40;;;13.55;;
67941;SDS011;54731;42.600;23.476;2024-03-02T06:35:02;23.33;;;12.10;;
67941;SDS011;54731;42.600;23.476;2024-03-02T06:37:28;22.27;;;12.25;;
67941;SDS011;54731;42.600;23.476;2024-03-02T06:39:53;27.58;;;13.07;;
67941;SDS011;54731;42.600;23.476;2024-03-02T06:42:19;26.70;;;12.67;;
67941;SDS011;54731;42.600;23.476;2024-03-02T06:44:44;28.70;;;19.27;;
67941;SDS011;54731;42.600;23.476;2024-03-02T06:47:09;37.13;;;20.23;;
67941;SDS011;54731;42.600;23.476;2024-03-02T06:49:34;33.47;;;18.00;;
67941;SDS011;54731;42.600;23.476;2024-03-02T06:52:00;34.83;;;18.43;;
67941;SDS011;54731;42.600;23.476;2024-03-02T06:54:25;31.83;;;14.83;;
67941;SDS011;54731;42.600;23.476;2024-03-02T06:56:50;37.03;;;16.00;;
67941;SDS011;54731;42.600;23.476;2024-03-02T06:59:16;35.27;;;18.53;;
67941;SDS011;54731;42.600;23.476;2024-03-02T07:01:41;27.93;;;13.50;;
67941;SDS011;54731;42.600;23.476;2024-03-02T07:04:06;32.75;;;15.55;;
67941;SDS011;54731;42.600;23.476;2024-03-02T07:06:31;32.07;;;15.23;;
67941;SDS011;54731;42.600;23.476;2024-03-02T07:08:57;35.60;;;17.67;;
67941;SDS011;54731;42.600;23.476;2024-03-02T07:11:22;40.13;;;20.10;;
67941;SDS011;54731;42.600;23.476;2024-03-02T07:13:47;33.40;;;15.77;;
67941;SDS011;54731;42.600;23.476;2024-03-02T07:16:13;32.57;;;17.13;;
67941;SDS011;54731;42.600;23.476;2024-03-02T07:18:38;29.30;;;14.87;;
67941;SDS011;54731;42.600;23.476;2024-03-02T07:21:03;27.27;;;14.10;;
67941;SDS011;54731;42.600;23.476;2024-03-02T07:23:29;39.22;;;17.13;;
67941;SDS011;54731;42.600;23.476;2024-03-02T07:25:54;38.05;;;17.80;;
67941;SDS011;54731;42.600;23.476;2024-03-02T07:28:19;37.33;;;19.67;;
67941;SDS011;54731;42.600;23.476;2024-03-02T07:30:45;30.63;;;15.20;;
67941;SDS011;54731;42.600;23.476;2024-03-02T07:33:10;25.90;;;13.57;;
67941;SDS011;54731;42.600;23.476;2024-03-02T07:35:35;23.93;;;11.23;;
67941;SDS011;54731;42.600;23.476;2024-03-02T07:38:01;17.00;;;9.90;;
67941;SDS011;54731;42.600;23.476;2024-03-02T07:40:26;19.67;;;10.02;;
67941;SDS011;54731;42.600;23.476;2024-03-02T07:42:51;22.15;;;11.02;;
67941;SDS011;54731;42.600;23.476;2024-03-02T07:45:17;24.00;;;10.30;;
67941;SDS011;54731;42.600;23.476;2024-03-02T07:47:42;22.70;;;11.43;;
67941;SDS011;54731;42.600;23.476;2024-03-02T07:50:07;22.70;;;10.37;;
67941;SDS011;54731;42.600;23.476;2024-03-02T07:52:33;23.23;;;10.37;;
67941;SDS011;54731;42.600;23.476;2024-03-02T07:54:58;19.57;;;10.20;;
67941;SDS011;54731;42.600;23.476;2024-03-02T07:57:24;23.95;;;11.10;;
67941;SDS011;54731;42.600;23.476;2024-03-02T07:59:49;25.43;;;11.67;;
67941;SDS011;54731;42.600;23.476;2024-03-02T08:02:15;23.00;;;11.57;;
67941;SDS011;54731;42.600;23.476;2024-03-02T08:04:40;22.27;;;11.93;;
67941;SDS011;54731;42.600;23.476;2024-03-02T08:07:06;30.77;;;12.80;;
67941;SDS011;54731;42.600;23.476;2024-03-02T08:09:31;30.23;;;16.77;;
67941;SDS011;54731;42.600;23.476;2024-03-02T08:11:57;34.33;;;17.23;;
67941;SDS011;54731;42.600;23.476;2024-03-02T08:14:22;32.73;;;15.83;;
67941;SDS011;54731;42.600;23.476;2024-03-02T08:16:47;30.80;;;14.85;;
67941;SDS011;54731;42.600;23.476;2024-03-02T08:19:13;34.37;;;15.00;;
67941;SDS011;54731;42.600;23.476;2024-03-02T08:21:38;34.10;;;16.00;;
67941;SDS011;54731;42.600;23.476;2024-03-02T08:24:03;33.50;;;14.47;;
67941;SDS011;54731;42.600;23.476;2024-03-02T08:26:29;37.03;;;16.50;;
67941;SDS011;54731;42.600;23.476;2024-03-02T08:28:54;42.22;;;19.02;;
67941;SDS011;54731;42.600;23.476;2024-03-02T08:31:20;40.53;;;15.30;;
67941;SDS011;54731;42.600;23.476;2024-03-02T08:33:45;28.57;;;14.00;;
67941;SDS011;54731;42.600;23.476;2024-03-02T08:36:11;33.33;;;16.53;;
67941;SDS011;54731;42.600;23.476;2024-03-02T08:38:36;35.90;;;18.60;;
67941;SDS011;54731;42.600;23.476;2024-03-02T08:41:02;39.13;;;20.30;;
67941;SDS011;54731;42.600;23.476;2024-03-02T08:43:27;45.07;;;21.63;;
67941;SDS011;54731;42.600;23.476;2024-03-02T08:45:53;48.03;;;21.23;;
67941;SDS011;54731;42.600;23.476;2024-03-02T08:48:21;41.97;;;20.92;;
67941;SDS011;54731;42.600;23.476;2024-03-02T08:50:46;43.87;;;19.00;;
67941;SDS011;54731;42.600;23.476;2024-03-02T08:53:11;46.13;;;20.33;;
67941;SDS011;54731;42.600;23.476;2024-03-02T08:55:37;42.25;;;19.60;;
67941;SDS011;54731;42.600;23.476;2024-03-02T08:58:02;44.13;;;20.63;;
67941;SDS011;54731;42.600;23.476;2024-03-02T09:00:28;46.73;;;22.27;;
67941;SDS011;54731;42.600;23.476;2024-03-02T09:02:53;48.47;;;22.20;;
67941;SDS011;54731;42.600;23.476;2024-03-02T09:05:18;43.80;;;20.50;;
67941;SDS011;54731;42.600;23.476;2024-03-02T09:07:44;35.50;;;17.80;;
67941;SDS011;54731;42.600;23.476;2024-03-02T09:10:09;36.05;;;16.42;;
67941;SDS011;54731;42.600;23.476;2024-03-02T09:12:35;37.27;;;17.67;;
67941;SDS011;54731;42.600;23.476;2024-03-02T09:15:01;35.90;;;17.58;;
67941;SDS011;54731;42.600;23.476;2024-03-02T09:17:27;35.73;;;16.67;;
67941;SDS011;54731;42.600;23.476;2024-03-02T09:19:53;40.47;;;17.58;;
67941;SDS011;54731;42.600;23.476;2024-03-02T09:22:19;35.63;;;17.73;;
67941;SDS011;54731;42.600;23.476;2024-03-02T09:24:45;38.20;;;18.05;;
67941;SDS011;54731;42.600;23.476;2024-03-02T09:27:10;36.83;;;17.00;;
67941;SDS011;54731;42.600;23.476;2024-03-02T09:29:36;35.90;;;16.38;;
67941;SDS011;54731;42.600;23.476;2024-03-02T09:32:01;36.28;;;16.67;;
67941;SDS011;54731;42.600;23.476;2024-03-02T09:34:27;36.03;;;15.73;;
67941;SDS011;54731;42.600;23.476;2024-03-02T09:36:52;37.00;;;17.63;;
67941;SDS011;54731;42.600;23.476;2024-03-02T09:39:18;32.63;;;17.95;;
67941;SDS011;54731;42.600;23.476;2024-03-02T09:41:44;35.35;;;18.40;;
67941;SDS011;54731;42.600;23.476;2024-03-02T09:44:10;33.83;;;17.63;;
67941;SDS011;54731;42.600;23.476;2024-03-02T09:46:36;33.87;;;16.90;;
67941;SDS011;54731;42.600;23.476;2024-03-02T09:49:04;37.95;;;17.27;;
67941;SDS011;54731;42.600;23.476;2024-03-02T09:51:31;34.33;;;17.13;;
67941;SDS011;54731;42.600;23.476;2024-03-02T09:53:56;37.65;;;16.73;;
67941;SDS011;54731;42.600;23.476;2024-03-02T09:56:22;36.78;;;18.13;;
67941;SDS011;54731;42.600;23.476;2024-03-02T09:58:48;46.00;;;21.30;;
67941;SDS011;54731;42.600;23.476;2024-03-02T10:01:15;45.35;;;19.45;;
67941;SDS011;54731;42.600;23.476;2024-03-02T10:03:40;34.83;;;18.30;;
67941;SDS011;54731;42.600;23.476;2024-03-02T10:06:24;36.53;;;17.10;;
67941;SDS011;54731;42.600;23.476;2024-03-02T10:08:51;38.20;;;17.67;;
67941;SDS011;54731;42.600;23.476;2024-03-02T10:11:27;39.08;;;18.73;;
67941;SDS011;54731;42.600;23.476;2024-03-02T10:14:09;31.57;;;15.77;;
67941;SDS011;54731;42.600;23.476;2024-03-02T10:16:36;32.28;;;14.38;;
67941;SDS011;54731;42.600;23.476;2024-03-02T10:19:21;29.05;;;14.63;;
67941;SDS011;54731;42.600;23.476;2024-03-02T10:21:48;29.95;;;13.40;;
67941;SDS011;54731;42.600;23.476;2024-03-02T10:24:15;27.65;;;12.77;;
67941;SDS011;54731;42.600;23.476;2024-03-02T10:26:40;27.43;;;14.07;;
67941;SDS011;54731;42.600;23.476;2024-03-02T10:29:07;28.17;;;13.27;;
67941;SDS011;54731;42.600;23.476;2024-03-02T10:31:33;28.10;;;13.67;;
67941;SDS011;54731;42.600;23.476;2024-03-02T10:33:58;22.95;;;11.13;;
67941;SDS011;54731;42.600;23.476;2024-03-02T10:36:25;23.77;;;11.63;;
67941;SDS011;54731;42.600;23.476;2024-03-02T10:38:50;24.20;;;11.70;;
67941;SDS011;54731;42.600;23.476;2024-03-02T10:41:17;23.40;;;12.07;;
67941;SDS011;54731;42.600;23.476;2024-03-02T10:43:43;23.02;;;12.38;;
67941;SDS011;54731;42.600;23.476;2024-03-02T10:46:09;23.00;;;10.27;;
67941;SDS011;54731;42.600;23.476;2024-03-02T10:48:36;20.77;;;10.77;;
67941;SDS011;54731;42.600;23.476;2024-03-02T10:51:05;21.17;;;12.30;;
67941;SDS011;54731;42.600;23.476;2024-03-02T10:53:31;18.53;;;9.20;;
67941;SDS011;54731;42.600;23.476;2024-03-02T10:55:57;20.03;;;10.70;;
67941;SDS011;54731;42.600;23.476;2024-03-02T10:58:24;22.35;;;10.82;;
67941;SDS011;54731;42.600;23.476;2024-03-02T11:00:56;21.90;;;10.27;;
67941;SDS011;54731;42.600;23.476;2024-03-02T11:03:22;18.15;;;9.43;;
67941;SDS011;54731;42.600;23.476;2024-03-02T11:05:48;19.03;;;10.17;;
67941;SDS011;54731;42.600;23.476;2024-03-02T11:08:16;18.70;;;10.40;;
67941;SDS011;54731;42.600;23.476;2024-03-02T11:10:45;25.50;;;11.75;;
67941;SDS011;54731;42.600;23.476;2024-03-02T11:13:15;14.38;;;8.05;;
67941;SDS011;54731;42.600;23.476;2024-03-02T11:15:42;19.50;;;10.70;;
67941;SDS011;54731;42.600;23.476;2024-03-02T11:18:08;17.10;;;8.73;;
67941;SDS011;54731;42.600;23.476;2024-03-02T11:20:38;13.88;;;7.88;;
67941;SDS011;54731;42.600;23.476;2024-03-02T11:23:04;11.63;;;6.65;;
67941;SDS011;54731;42.600;23.476;2024-03-02T11:25:31;13.23;;;5.83;;
67941;SDS011;54731;42.600;23.476;2024-03-02T11:28:00;14.38;;;7.43;;
67941;SDS011;54731;42.600;23.476;2024-03-02T11:33:01;11.38;;;6.50;;
67941;SDS011;54731;42.600;23.476;2024-03-02T11:35:28;10.82;;;6.50;;
67941;SDS011;54731;42.600;23.476;2024-03-02T11:37:54;12.43;;;6.70;;
67941;SDS011;54731;42.600;23.476;2024-03-02T11:40:22;9.77;;;5.90;;
67941;SDS011;54731;42.600;23.476;2024-03-02T11:42:48;10.80;;;6.95;;
67941;SDS011;54731;42.600;23.476;2024-03-02T11:45:16;14.17;;;6.47;;
67941;SDS011;54731;42.600;23.476;2024-03-02T11:47:42;10.40;;;5.78;;
67941;SDS011;54731;42.600;23.476;2024-03-02T11:50:15;11.07;;;6.13;;
67941;SDS011;54731;42.600;23.476;2024-03-02T11:52:40;11.97;;;5.97;;
67941;SDS011;54731;42.600;23.476;2024-03-02T11:55:07;14.38;;;6.53;;
67941;SDS011;54731;42.600;23.476;2024-03-02T11:57:34;15.00;;;7.68;;
67941;SDS011;54731;42.600;23.476;2024-03-02T12:00:00;13.47;;;8.00;;
67941;SDS011;54731;42.600;23.476;2024-03-02T12:02:25;15.13;;;7.70;;
67941;SDS011;54731;42.600;23.476;2024-03-02T12:04:50;16.07;;;8.40;;
67941;SDS011;54731;42.600;23.476;2024-03-02T12:07:19;19.97;;;8.77;;
67941;SDS011;54731;42.600;23.476;2024-03-02T12:09:45;17.15;;;8.30;;
67941;SDS011;54731;42.600;23.476;2024-03-02T12:12:10;16.70;;;8.10;;
67941;SDS011;54731;42.600;23.476;2024-03-02T12:14:36;13.30;;;7.10;;
67941;SDS011;54731;42.600;23.476;2024-03-02T12:17:03;14.65;;;7.20;;
67941;SDS011;54731;42.600;23.476;2024-03-02T12:19:29;16.60;;;8.77;;
67941;SDS011;54731;42.600;23.476;2024-03-02T12:21:59;13.10;;;7.47;;
67941;SDS011;54731;42.600;23.476;2024-03-02T12:24:30;15.47;;;8.67;;
67941;SDS011;54731;42.600;23.476;2024-03-02T12:26:55;17.00;;;9.05;;
67941;SDS011;54731;42.600;23.476;2024-03-02T12:29:22;16.00;;;8.98;;
67941;SDS011;54731;42.600;23.476;2024-03-02T12:31:51;15.98;;;9.25;;
67941;SDS011;54731;42.600;23.476;2024-03-02T12:34:17;16.08;;;8.48;;
67941;SDS011;54731;42.600;23.476;2024-03-02T12:36:43;15.60;;;8.40;;
67941;SDS011;54731;42.600;23.476;2024-03-02T12:39:09;17.17;;;8.03;;
67941;SDS011;54731;42.600;23.476;2024-03-02T12:41:35;13.77;;;8.73;;
67941;SDS011;54731;42.600;23.476;2024-03-02T12:44:01;13.30;;;8.73;;
67941;SDS011;54731;42.600;23.476;2024-03-02T12:46:27;17.97;;;9.77;;
67941;SDS011;54731;42.600;23.476;2024-03-02T12:48:52;14.13;;;8.90;;
67941;SDS011;54731;42.600;23.476;2024-03-02T12:51:18;12.25;;;7.75;;
67941;SDS011;54731;42.600;23.476;2024-03-02T12:53:43;17.98;;;10.10;;
67941;SDS011;54731;42.600;23.476;2024-03-02T12:56:08;19.20;;;13.10;;
67941;SDS011;54731;42.600;23.476;2024-03-02T12:58:40;17.33;;;10.50;;
67941;SDS011;54731;42.600;23.476;2024-03-02T13:01:06;25.17;;;13.85;;
67941;SDS011;54731;42.600;23.476;2024-03-02T13:03:34;13.47;;;7.37;;
67941;SDS011;54731;42.600;23.476;2024-03-02T13:06:00;11.80;;;6.70;;
67941;SDS011;54731;42.600;23.476;2024-03-02T13:08:25;12.10;;;6.80;;
67941;SDS011;54731;42.600;23.476;2024-03-02T13:10:51;12.98;;;7.53;;
67941;SDS011;54731;42.600;23.476;2024-03-02T13:13:17;11.83;;;7.50;;
67941;SDS011;54731;42.600;23.476;2024-03-02T13:15:42;14.33;;;7.87;;
67941;SDS011;54731;42.600;23.476;2024-03-02T13:18:07;13.30;;;8.47;;
67941;SDS011;54731;42.600;23.476;2024-03-02T13:20:33;15.40;;;9.00;;
67941;SDS011;54731;42.600;23.476;2024-03-02T13:22:58;16.95;;;8.65;;
67941;SDS011;54731;42.600;23.476;2024-03-02T13:25:23;18.60;;;9.97;;
67941;SDS011;54731;42.600;23.476;2024-03-02T13:27:48;18.10;;;12.30;;
67941;SDS011;54731;42.600;23.476;2024-03-02T13:30:14;20.03;;;12.23;;
67941;SDS011;54731;42.600;23.476;2024-03-02T13:32:39;19.43;;;11.67;;
67941;SDS011;54731;42.600;23.476;2024-03-02T13:35:04;15.43;;;9.77;;
67941;SDS011;54731;42.600;23.476;2024-03-02T13:37:30;15.07;;;8.83;;
67941;SDS011;54731;42.600;23.476;2024-03-02T13:39:55;16.87;;;10.17;;
67941;SDS011;54731;42.600;23.476;2024-03-02T13:42:20;14.43;;;8.93;;
67941;SDS011;54731;42.600;23.476;2024-03-02T13:44:46;14.60;;;8.07;;
67941;SDS011;54731;42.600;23.476;2024-03-02T13:47:11;14.97;;;8.80;;
67941;SDS011;54731;42.600;23.476;2024-03-02T13:49:37;16.27;;;10.50;;
67941;SDS011;54731;42.600;23.476;2024-03-02T13:52:06;15.47;;;8.17;;
67941;SDS011;54731;42.600;23.476;2024-03-02T13:54:31;14.68;;;8.38;;
67941;SDS011;54731;42.600;23.476;2024-03-02T13:56:56;17.00;;;9.60;;
67941;SDS011;54731;42.600;23.476;2024-03-02T13:59:22;16.93;;;10.40;;
67941;SDS011;54731;42.600;23.476;2024-03-02T14:01:47;20.07;;;12.27;;
67941;SDS011;54731;42.600;23.476;2024-03-02T14:04:12;18.47;;;11.10;;
67941;SDS011;54731;42.600;23.476;2024-03-02T14:06:38;18.25;;;10.02;;
67941;SDS011;54731;42.600;23.476;2024-03-02T14:09:03;20.55;;;11.57;;
67941;SDS011;54731;42.600;23.476;2024-03-02T14:11:28;21.23;;;12.87;;